Time;durP1;ratioP1;P1;durP2;ratioP2;P2;SDS_P1;SDS_P2;PMS_P1;PMS_P2;Temp;Humidity;BMP_temperature;BMP_pressure;BME280_temperature;BME280_humidity;BME280_pressure;Samples;Min_cycle;Max_cycle;Signal;HPM_P1;HPM_P2
2024/04/16 00:04:28;;;;;;;4.65;0.77;;;;;;;1.52;100.00;98932.56;10249829;29;20013;-77
2024/04/16 00:09:30;;;;;;;3.45;0.70;;;;;;;1.56;100.00;98926.09;10240793;29;20351;-77
2024/04/16 00:14:32;;;;;;;0.60;0.30;;;;;;;1.19;100.00;98922.41;10238866;29;20013;-76
2024/04/16 00:19:35;;;;;;;3.65;1.40;;;;;;;1.73;100.00;98896.69;10227046;29;20471;-77
2024/04/16 00:24:37;;;;;;;1.33;1.23;;;;;;;1.79;100.00;98886.66;10252435;29;20009;-78
2024/04/16 00:29:38;;;;;;;1.05;0.95;;;;;;;1.52;100.00;98908.72;10253408;28;20014;-78
2024/04/16 00:34:40;;;;;;;4.18;1.67;;;;;;;1.78;100.00;98892.88;10251655;29;20013;-77
2024/04/16 00:39:42;;;;;;;1.52;1.35;;;;;;;1.69;100.00;98860.78;10250932;29;20018;-75
2024/04/16 00:44:44;;;;;;;3.08;2.10;;;;;;;1.93;100.00;98868.84;10251470;29;20010;-77
2024/04/16 00:49:46;;;;;;;1.95;1.70;;;;;;;1.94;100.00;98857.28;10252426;29;20024;-75
2024/04/16 00:54:48;;;;;;;2.88;1.95;;;;;;;2.19;100.00;98858.22;10251977;29;20019;-76
2024/04/16 00:59:51;;;;;;;4.57;3.72;;;;;;;2.52;100.00;98856.78;10252240;29;20025;-75
2024/04/16 01:04:54;;;;;;;4.60;3.60;;;;;;;2.60;100.00;98842.03;10242966;28;20017;-75
2024/04/16 01:09:56;;;;;;;4.38;3.22;;;;;;;2.37;100.00;98848.97;10244011;28;20017;-74
2024/04/16 01:14:58;;;;;;;4.57;3.42;;;;;;;2.95;100.00;98833.31;10250762;29;20009;-74
2024/04/16 01:20:00;;;;;;;9.65;6.75;;;;;;;3.03;100.00;98841.53;10252084;29;20013;-77
2024/04/16 01:25:02;;;;;;;8.85;5.75;;;;;;;2.95;100.00;98837.78;10244468;28;20527;-76
2024/04/16 01:30:05;;;;;;;16.88;7.05;;;;;;;2.71;100.00;98840.41;10250453;28;20734;-74
2024/04/16 01:35:06;;;;;;;15.15;7.43;;;;;;;2.94;100.00;98825.47;10249430;29;20017;-77
2024/04/16 01:40:10;;;;;;;13.25;8.68;;;;;;;2.89;100.00;98817.00;10249842;29;20025;-76
2024/04/16 01:45:12;;;;;;;20.48;11.20;;;;;;;3.34;100.00;98811.84;10248851;29;20121;-75
2024/04/16 01:50:14;;;;;;;23.60;13.60;;;;;;;3.31;100.00;98806.78;10223051;29;20028;-76
2024/04/16 01:55:15;;;;;;;21.55;13.27;;;;;;;3.29;100.00;98814.84;10249228;28;20149;-76
2024/04/16 02:00:18;;;;;;;28.98;11.25;;;;;;;3.36;100.00;98801.97;10239703;29;20013;-76
2024/04/16 02:05:19;;;;;;;18.90;9.32;;;;;;;3.42;100.00;98794.38;10248528;29;20010;-75
2024/04/16 02:10:21;;;;;;;12.75;6.03;;;;;;;3.24;100.00;98798.44;10249397;29;20474;-77
2024/04/16 02:15:23;;;;;;;20.83;9.82;;;;;;;3.35;100.00;98784.38;10247258;29;20009;-76
2024/04/16 02:20:25;;;;;;;10.60;5.00;;;;;;;3.41;100.00;98781.25;10253421;28;20812;-75
2024/04/16 02:25:27;;;;;;;8.60;3.78;;;;;;;3.18;100.00;98788.28;10254171;29;20016;-74
2024/04/16 02:30:29;;;;;;;17.48;6.70;;;;;;;3.54;100.00;98765.19;10254997;28;20033;-76
2024/04/16 02:35:33;;;;;;;13.13;4.32;;;;;;;3.41;100.00;98765.31;10254369;29;20005;-76
2024/04/16 02:40:36;;;;;;;15.15;3.90;;;;;;;3.21;100.00;98774.78;10254686;28;20005;-75
2024/04/16 02:45:38;;;;;;;16.83;4.50;;;;;;;3.43;100.00;98811.16;10254253;29;20033;-76
2024/04/16 02:50:40;;;;;;;15.57;4.93;;;;;;;3.51;100.00;98758.31;10254643;29;20020;-76
2024/04/16 02:55:42;;;;;;;7.78;3.30;;;;;;;3.54;100.00;98754.56;10253794;28;20018;-76
2024/04/16 03:00:44;;;;;;;11.82;4.47;;;;;;;3.53;100.00;98756.38;10254123;29;20009;-77
2024/04/16 03:05:46;;;;;;;13.45;4.78;;;;;;;3.90;100.00;98748.19;10252777;29;20790;-77
2024/04/16 03:10:48;;;;;;;10.93;3.60;;;;;;;3.79;100.00;98756.19;10254038;28;20544;-77
2024/04/16 03:15:49;;;;;;;9.73;2.72;;;;;;;3.54;100.00;98750.13;10228011;29;20121;-76
2024/04/16 03:21:01;;;;;;;13.02;3.15;;;;;;;3.84;100.00;98753.97;10252299;29;20014;-77
2024/04/16 03:26:03;;;;;;;10.60;3.17;;;;;;;3.62;100.00;98741.53;10242466;28;20370;-78
2024/04/16 03:31:05;;;;;;;;;;;;;;;3.89;100.00;98730.56;10251218;28;20025;-74
2024/04/16 03:36:07;;;;;;;22.77;4.73;;;;;;;3.87;100.00;98727.19;10253287;29;19932;-76
2024/04/16 03:41:09;;;;;;;10.32;2.75;;;;;;;3.65;100.00;98726.25;10253849;29;20006;-77
2024/04/16 03:46:10;;;;;;;6.55;2.33;;;;;;;3.71;100.00;98740.84;10253084;29;20136;-76
2024/04/16 03:51:12;;;;;;;10.00;2.38;;;;;;;3.66;100.00;98725.25;10253579;28;20009;-75
2024/04/16 03:56:14;;;;;;;10.65;2.60;;;;;;;3.81;99.88;98735.63;10252208;29;20069;-76
2024/04/16 04:01:16;;;;;;;3.05;1.80;;;;;;;3.71;99.32;98735.53;10251622;29;20005;-75
2024/04/16 04:06:18;;;;;;;4.97;1.55;;;;;;;3.59;100.00;98725.84;10254247;29;20351;-76
2024/04/16 04:11:20;;;;;;;7.65;1.98;;;;;;;3.71;99.98;98736.38;10253978;29;20009;-76
2024/04/16 04:16:22;;;;;;;8.45;2.42;;;;;;;3.96;98.90;98715.81;10252469;29;20045;-76
2024/04/16 04:21:23;;;;;;;4.90;2.22;;;;;;;3.69;99.12;98732.13;10254344;28;20120;-77
2024/04/16 04:26:25;;;;;;;4.05;1.63;;;;;;;3.83;97.28;98739.84;10254184;28;20013;-77
2024/04/16 04:31:27;;;;;;;4.25;1.98;;;;;;;3.65;96.93;98734.19;10253870;29;20017;-76
2024/04/16 04:36:29;;;;;;;10.20;3.38;;;;;;;3.53;98.02;98735.16;10254328;29;20099;-78
2024/04/16 04:41:31;;;;;;;6.55;2.40;;;;;;;3.86;96.36;98752.88;10254105;28;20005;-77
2024/04/16 04:46:33;;;;;;;6.00;2.75;;;;;;;3.74;96.04;98729.97;10228576;29;20064;-75
2024/04/16 04:51:35;;;;;;;;;;;;;;;4.02;92.88;98741.91;10255042;29;20013;-77
2024/04/16 04:56:37;;;;;;;8.52;3.67;;;;;;;3.98;94.06;98737.81;10253697;29;19939;-77
2024/04/16 05:01:39;;;;;;;9.45;3.60;;;;;;;4.31;91.43;98717.47;10228334;29;20024;-76
2024/04/16 05:06:41;;;;;;;7.40;4.43;;;;;;;4.05;92.10;98725.69;10254293;28;20028;-78
2024/04/16 05:11:42;;;;;;;7.40;4.13;;;;;;;3.84;92.54;98719.44;10253265;28;20010;-78
2024/04/16 05:16:44;;;;;;;8.07;4.32;;;;;;;4.00;91.99;98732.34;10251849;28;20013;-78
2024/04/16 05:21:46;;;;;;;5.68;3.47;;;;;;;4.01;90.44;98757.97;10251641;29;20005;-78
2024/04/16 05:26:48;;;;;;;7.75;3.75;;;;;;;4.10;89.59;98715.56;10252294;29;20366;-78
2024/04/16 05:31:50;;;;;;;12.70;4.95;;;;;;;4.27;90.00;98721.31;10252583;28;20021;-76
2024/04/16 05:36:52;;;;;;;12.07;5.60;;;;;;;3.91;93.69;98726.81;10252208;29;20014;-77
2024/04/16 05:41:53;;;;;;;9.68;7.15;;;;;;;3.41;97.27;98731.66;10240665;29;20091;-77
2024/04/16 05:46:55;;;;;;;10.98;5.18;;;;;;;3.73;96.66;98725.63;10251374;29;20025;-77
2024/04/16 05:51:58;;;;;;;10.15;6.75;;;;;;;3.83;93.75;98723.06;10251370;28;20362;-77
2024/04/16 06:02:37;;;;;;;6.40;5.30;;;;;;;3.92;92.59;98735.63;10850376;23;20016;-75
2024/04/16 06:07:39;;;;;;;8.18;5.60;;;;;;;4.12;92.49;98726.06;10315503;28;20013;-75
2024/04/16 06:12:41;;;;;;;9.73;7.10;;;;;;;4.61;90.55;98722.06;10296567;28;20477;-75
2024/04/16 06:17:43;;;;;;;8.32;3.22;;;;;;;4.42;87.63;98728.06;10268922;28;20021;-76
2024/04/16 06:22:46;;;;;;;4.00;3.27;;;;;;;4.40;89.93;98717.53;10315981;28;20556;-76
2024/04/16 06:27:49;;;;;;;7.05;4.38;;;;;;;4.52;89.28;98721.00;10289611;28;20792;-76
2024/04/16 06:32:51;;;;;;;8.52;2.97;;;;;;;4.52;87.75;98725.47;10295387;28;20161;-76
2024/04/16 06:37:53;;;;;;;8.48;5.75;;;;;;;5.05;86.57;98705.06;10295649;28;20019;-76
2024/04/16 06:42:55;;;;;;;5.45;4.00;;;;;;;5.01;85.55;98716.94;10301739;28;20012;-75
2024/04/16 06:47:56;;;;;;;8.63;5.60;;;;;;;5.23;84.23;98692.00;10303102;28;20449;-75
2024/04/16 06:52:58;;;;;;;11.57;4.00;;;;;;;5.51;82.64;98700.25;10304149;28;20027;-76
2024/04/16 06:58:00;;;;;;;8.82;5.50;;;;;;;5.45;83.23;98698.13;10297051;28;20020;-76
2024/04/16 07:03:02;;;;;;;10.30;7.03;;;;;;;5.74;80.82;98730.25;10331487;28;20016;-76
2024/04/16 07:08:05;;;;;;;8.48;5.03;;;;;;;5.67;81.74;98695.28;10317773;28;20008;-74
2024/04/16 07:13:06;;;;;;;10.68;5.43;;;;;;;6.02;79.26;98698.50;10338690;28;20008;-75
2024/04/16 07:18:08;;;;;;;4.55;4.13;;;;;;;6.00;78.91;98676.47;10348456;28;20039;-74
2024/04/16 07:23:10;;;;;;;6.97;4.80;;;;;;;6.48;77.94;98676.53;10346674;28;20476;-75
2024/04/16 07:28:13;;;;;;;4.03;3.60;;;;;;;6.27;76.80;98676.66;10367257;28;20472;-75
2024/04/16 07:33:15;;;;;;;4.15;2.03;;;;;;;5.73;79.35;98677.91;10337855;28;20019;-74
2024/04/16 07:38:18;;;;;;;5.28;3.20;;;;;;;6.28;77.46;98678.34;10352080;28;20016;-75
2024/04/16 07:43:22;;;;;;;4.00;2.83;;;;;;;6.07;78.12;98658.94;10340793;28;20011;-74
2024/04/16 07:48:23;;;;;;;8.48;2.05;;;;;;;5.87;80.90;98652.72;10315084;28;20012;-74
2024/04/16 07:53:25;;;;;;;6.78;3.58;;;;;;;6.43;79.54;98656.59;10367725;28;20012;-75
2024/04/16 07:58:27;;;;;;;5.57;2.53;;;;;;;6.56;78.03;98649.16;10339216;28;20367;-75
2024/04/16 08:03:29;;;;;;;3.92;2.08;;;;;;;6.58;78.41;98644.50;10350302;28;20532;-75
2024/04/16 08:08:32;;;;;;;4.00;2.50;;;;;;;6.18;82.91;98643.66;10348294;28;20086;-76
2024/04/16 08:13:38;;;;;;;6.30;3.05;;;;;;;6.02;87.75;98639.88;10365935;28;20008;-76
2024/04/16 08:18:40;;;;;;;4.75;2.85;;;;;;;6.09;89.72;98647.19;10306161;28;20013;-76
2024/04/16 08:23:41;;;;;;;11.25;4.00;;;;;;;5.86;91.91;98640.38;10327582;28;20020;-76
2024/04/16 08:28:43;;;;;;;7.10;2.95;;;;;;;5.46;94.42;98635.94;10306273;28;20023;-76
2024/04/16 08:33:45;;;;;;;4.78;3.40;;;;;;;5.87;96.19;98640.25;10330052;28;20086;-77
2024/04/16 08:38:47;;;;;;;10.57;4.40;;;;;;;6.38;98.68;98635.69;10340271;28;20012;-77
2024/04/16 08:43:50;;;;;;;6.93;2.85;;;;;;;5.85;97.31;98642.22;10365412;28;20008;-75
2024/04/16 08:48:53;;;;;;;4.60;2.30;;;;;;;5.04;100.00;98668.78;10331771;28;20538;-75
2024/04/16 08:53:55;;;;;;;7.18;3.05;;;;;;;4.32;100.00;98656.19;10331673;28;20009;-75
2024/04/16 08:58:57;;;;;;;3.55;2.08;;;;;;;4.41;100.00;98651.91;10328846;28;20027;-75
2024/04/16 09:03:59;;;;;;;2.38;1.17;;;;;;;4.03;100.00;98644.44;10343826;28;20650;-75
2024/04/16 09:09:02;;;;;;;2.28;1.10;;;;;;;3.77;100.00;98651.88;10321871;28;20560;-73
2024/04/16 09:14:13;;;;;;;1.65;1.52;;;;;;;4.28;100.00;98641.47;10337459;28;20020;-75
2024/04/16 09:19:15;;;;;;;2.83;1.77;;;;;;;4.32;100.00;98644.72;10348193;28;20030;-74
2024/04/16 09:24:20;;;;;;;2.38;1.50;;;;;;;4.47;100.00;98639.91;10332227;28;20051;-74
2024/04/16 09:29:28;;;;;;;1.92;1.30;;;;;;;4.00;100.00;98650.84;10353302;28;20025;-75
2024/04/16 09:34:31;;;;;;;2.25;1.67;;;;;;;3.99;100.00;98645.66;10353919;28;20019;-74
2024/04/16 09:39:33;;;;;;;3.45;1.70;;;;;;;4.37;100.00;98638.03;10351388;28;20016;-74
2024/04/16 09:44:36;;;;;;;1.40;1.20;;;;;;;4.43;100.00;98638.50;10363591;28;20008;-75
2024/04/16 09:49:38;;;;;;;2.83;1.45;;;;;;;4.50;100.00;98645.84;10363702;28;20012;-74
2024/04/16 09:55:00;;;;;;;2.22;1.55;;;;;;;5.07;100.00;98646.38;10362598;28;20021;-74
2024/04/16 10:00:03;;;;;;;3.47;1.67;;;;;;;5.12;100.00;98653.97;10342912;28;20024;-74
2024/04/16 10:05:09;;;;;;;2.88;1.33;;;;;;;5.24;100.00;98648.44;10341355;28;20009;-74
2024/04/16 10:10:12;;;;;;;2.28;1.50;;;;;;;5.64;100.00;98649.44;10319299;28;20451;-74
2024/04/16 10:15:15;;;;;;;1.23;1.10;;;;;;;6.03;100.00;98641.53;10336405;28;20008;-74
2024/04/16 10:20:17;;;;;;;2.33;1.17;;;;;;;5.61;98.88;98653.22;10336764;28;20008;-74
2024/04/16 10:25:26;;;;;;;1.75;0.50;;;;;;;5.79;99.87;98658.75;10335571;28;20373;-74
2024/04/16 10:30:29;;;;;;;2.20;0.35;;;;;;;5.88;94.74;98659.75;10320218;28;20036;-74
2024/04/16 10:35:33;;;;;;;0.80;0.60;;;;;;;6.28;93.91;98665.03;10307903;28;20012;-74
2024/04/16 10:40:37;;;;;;;2.33;0.82;;;;;;;6.23;90.27;98669.09;10345591;28;20020;-74
2024/04/16 10:45:44;;;;;;;0.60;0.52;;;;;;;6.33;92.58;98673.44;10334859;28;20012;-75
2024/04/16 10:50:48;;;;;;;0.47;0.40;;;;;;;6.36;94.51;98685.63;10347845;28;20012;-74
2024/04/16 10:55:50;;;;;;;0.25;0.25;;;;;;;6.17;96.60;98689.97;10327732;28;20481;-74
2024/04/16 11:00:53;;;;;;;0.13;0.10;;;;;;;5.93;94.86;98694.84;10340704;28;20028;-75
2024/04/16 11:05:58;;;;;;;0.30;0.20;;;;;;;6.14;90.35;98692.06;10280730;28;20024;-76
2024/04/16 11:11:00;;;;;;;0.52;0.10;;;;;;;7.14;91.65;98710.53;10246808;28;20087;-75
2024/04/16 11:16:02;;;;;;;;;;;;;;;7.22;84.18;98721.34;10278398;28;20155;-76
2024/04/16 11:21:04;;;;;;;1.00;0.30;;;;;;;6.85;90.54;98737.19;10298459;28;19931;-74
2024/04/16 11:26:06;;;;;;;2.30;0.20;;;;;;;6.88;89.74;98744.13;10297853;28;20490;-74
2024/04/16 11:31:11;;;;;;;0.40;0.40;;;;;;;7.13;92.49;98758.72;10295636;28;20012;-74
2024/04/16 11:36:16;;;;;;;0.20;0.20;;;;;;;7.13;87.82;98770.25;10329898;28;20005;-74
2024/04/16 11:41:18;;;;;;;0.10;0.00;;;;;;;7.61;85.56;98773.84;10301736;28;20032;-74
2024/04/16 11:46:20;;;;;;;0.43;0.10;;;;;;;8.43;87.29;98782.94;10298428;28;20009;-75
2024/04/16 11:51:22;;;;;;;0.10;0.10;;;;;;;10.15;77.15;98786.06;10268035;28;20013;-75
2024/04/16 11:56:24;;;;;;;0.10;0.10;;;;;;;13.46;78.32;98788.72;10283525;28;20091;-75
2024/04/16 12:01:26;;;;;;;0.10;0.10;;;;;;;13.65;69.54;98810.81;10280940;28;20024;-75
2024/04/16 12:06:28;;;;;;;0.20;0.10;;;;;;;12.94;67.73;98813.66;10287064;28;20019;-75
2024/04/16 12:11:29;;;;;;;0.87;0.20;;;;;;;12.32;67.38;98825.25;10289192;28;20227;-75
2024/04/16 12:16:33;;;;;;;3.47;0.40;;;;;;;12.38;69.58;98832.63;10274014;28;20251;-75
2024/04/16 12:21:36;;;;;;;1.48;0.50;;;;;;;11.88;64.86;98854.44;10287436;28;20013;-75
2024/04/16 12:26:38;;;;;;;0.40;0.40;;;;;;;11.41;65.08;98858.63;10280430;28;20053;-76
2024/04/16 12:31:40;;;;;;;0.50;0.50;;;;;;;10.78;67.35;98881.47;10299409;28;20092;-74
2024/04/16 12:36:42;;;;;;;0.93;0.70;;;;;;;9.70;65.78;98897.03;10291300;28;20025;-75
2024/04/16 12:41:44;;;;;;;1.80;0.80;;;;;;;9.08;70.29;98904.16;10297652;28;20020;-75
2024/04/16 12:46:46;;;;;;;0.90;0.90;;;;;;;9.29;74.19;98918.09;10264103;28;20463;-75
2024/04/16 12:51:47;;;;;;;1.20;1.08;;;;;;;9.57;77.59;98922.56;10263548;28;20076;-74
2024/04/16 12:56:49;;;;;;;1.00;0.70;;;;;;;9.84;78.34;98921.63;10276916;28;20470;-74
2024/04/16 13:01:54;;;;;;;1.00;0.95;;;;;;;10.50;72.31;98933.69;10281264;28;20012;-75
2024/04/16 13:06:57;;;;;;;0.65;0.65;;;;;;;11.00;68.20;98941.00;10349450;28;20027;-76
2024/04/16 13:11:58;;;;;;;;;;;;;;;12.42;72.10;98940.81;10346031;28;20008;-75
2024/04/16 13:17:00;;;;;;;1.40;0.90;;;;;;;12.55;59.47;98949.22;10327764;28;20411;-74
2024/04/16 13:22:02;;;;;;;0.90;0.90;;;;;;;11.77;58.32;98965.06;10350595;28;20377;-75
2024/04/16 13:27:04;;;;;;;1.45;1.15;;;;;;;11.20;64.13;98971.97;10344206;28;20520;-75
2024/04/16 13:32:06;;;;;;;1.60;1.20;;;;;;;10.49;64.56;98977.66;10324603;28;20004;-76
2024/04/16 13:37:10;;;;;;;1.25;1.15;;;;;;;10.68;67.20;98985.47;10358321;28;20939;-76
2024/04/16 13:42:12;;;;;;;1.20;1.10;;;;;;;11.32;62.40;98999.41;10335263;28;20008;-75
2024/04/16 13:47:17;;;;;;;1.40;1.30;;;;;;;12.58;58.63;98999.22;10320799;28;20023;-75
2024/04/16 13:52:19;;;;;;;0.85;0.77;;;;;;;14.70;52.80;99008.00;10353131;28;20085;-76
2024/04/16 13:57:21;;;;;;;1.58;1.02;;;;;;;13.26;52.52;99005.91;10356728;28;20504;-77
2024/04/16 14:02:23;;;;;;;1.38;1.27;;;;;;;13.77;51.57;99008.19;10297850;28;20023;-77
2024/04/16 14:07:25;;;;;;;1.57;1.47;;;;;;;12.95;50.84;99017.50;10335776;28;20016;-75
2024/04/16 14:12:27;;;;;;;1.90;1.80;;;;;;;12.20;54.20;99019.56;10318728;28;20008;-75
2024/04/16 14:17:30;;;;;;;2.05;1.85;;;;;;;13.39;52.53;99022.41;10338235;28;20024;-76
2024/04/16 14:22:32;;;;;;;2.47;2.28;;;;;;;13.09;49.58;99024.00;10317885;28;20453;-76
2024/04/16 14:27:34;;;;;;;2.05;1.95;;;;;;;12.65;50.02;99029.84;10339989;28;20023;-75
2024/04/16 14:32:36;;;;;;;2.75;2.00;;;;;;;12.06;53.29;99048.81;10301437;28;20016;-75
2024/04/16 14:37:39;;;;;;;2.33;1.98;;;;;;;10.13;62.96;99061.75;10305392;28;20019;-75
2024/04/16 14:42:41;;;;;;;2.30;2.10;;;;;;;10.06;67.59;99079.44;10340444;28;20023;-75
2024/04/16 14:47:43;;;;;;;3.53;3.00;;;;;;;10.36;64.44;99075.50;10343479;28;20404;-74
2024/04/16 14:52:45;;;;;;;5.00;3.10;;;;;;;11.46;59.43;99070.53;10342228;28;20004;-74
2024/04/16 14:57:47;;;;;;;4.97;3.90;;;;;;;13.19;56.13;99062.41;10340046;28;20486;-75
2024/04/16 15:02:49;;;;;;;4.82;4.43;;;;;;;12.93;55.61;99078.81;10333728;28;20023;-76
2024/04/16 15:07:51;;;;;;;6.03;5.07;;;;;;;10.98;59.47;99088.06;10335938;28;20016;-76
2024/04/16 15:12:56;;;;;;;6.97;5.70;;;;;;;10.78;62.63;99098.19;10353549;28;20094;-76
2024/04/16 15:17:58;;;;;;;6.80;5.53;;;;;;;10.38;63.78;99108.41;10338746;28;20279;-75
2024/04/16 15:23:00;;;;;;;5.95;5.35;;;;;;;10.77;63.01;99112.59;10356113;28;20036;-75
2024/04/16 15:28:01;;;;;;;6.35;5.40;;;;;;;12.46;55.62;99109.16;10339177;28;20018;-75
2024/04/16 15:33:03;;;;;;;6.70;6.10;;;;;;;13.46;53.31;99106.16;10352250;28;20020;-75
2024/04/16 15:38:05;;;;;;;6.55;5.95;;;;;;;14.68;49.98;99115.44;10335532;28;20013;-75
2024/04/16 15:49:12;;;;;;;6.95;5.28;;;;;;;14.38;50.31;99126.13;10482150;28;20243;-76
2024/04/16 15:54:14;;;;;;;5.95;5.35;;;;;;;14.69;48.11;99113.56;10456356;28;20011;-76
2024/04/16 15:59:15;;;;;;;7.07;5.10;;;;;;;13.37;51.13;99129.63;10420611;28;20031;-76
2024/04/16 16:04:18;;;;;;;4.50;4.07;;;;;;;11.68;54.17;99136.34;10430208;28;20086;-76
2024/04/16 16:09:24;;;;;;;8.98;4.25;;;;;;;11.17;57.95;99147.00;10420543;28;20011;-77
2024/04/16 16:14:26;;;;;;;5.70;3.50;;;;;;;10.99;59.18;99157.75;10437291;28;20015;-76
2024/04/16 16:19:27;;;;;;;3.40;3.07;;;;;;;11.01;58.81;99160.28;10419182;28;20023;-76
2024/04/16 16:24:29;;;;;;;4.07;2.88;;;;;;;10.65;58.87;99157.66;10411399;28;20015;-76
2024/04/16 16:29:31;;;;;;;2.73;2.53;;;;;;;11.76;57.54;99159.75;10425971;28;20015;-77
2024/04/16 16:34:34;;;;;;;2.33;2.13;;;;;;;11.95;53.36;99160.31;10421327;28;20098;-76
2024/04/16 16:39:35;;;;;;;2.25;1.80;;;;;;;11.59;54.96;99167.72;10404205;28;20014;-76
2024/04/16 16:44:37;;;;;;;2.47;1.57;;;;;;;11.90;52.83;99178.81;10437430;28;20022;-76
2024/04/16 16:49:39;;;;;;;4.03;1.85;;;;;;;11.30;54.52;99189.59;10422256;28;20074;-76
2024/04/16 16:54:41;;;;;;;1.83;1.70;;;;;;;10.71;56.93;99193.78;10424410;28;20007;-77
2024/04/16 16:59:43;;;;;;;2.22;1.80;;;;;;;10.12;58.27;99194.22;10420217;28;20145;-77
2024/04/16 17:04:45;;;;;;;2.08;1.88;;;;;;;9.88;62.43;99204.66;10410905;28;20018;-77
2024/04/16 17:09:47;;;;;;;3.47;2.00;;;;;;;9.86;61.81;99206.63;10422612;28;20022;-77
2024/04/16 17:14:49;;;;;;;2.10;2.00;;;;;;;9.25;64.76;99224.03;10430060;28;20476;-76
2024/04/16 17:19:51;;;;;;;2.40;2.20;;;;;;;9.49;64.32;99229.75;10399328;28;20328;-76
2024/04/16 17:24:52;;;;;;;2.10;1.77;;;;;;;9.42;65.26;99230.47;10428412;28;20384;-76
2024/04/16 17:29:54;;;;;;;2.08;1.98;;;;;;;9.18;65.44;99233.63;10431263;28;20357;-76
2024/04/16 17:34:56;;;;;;;2.17;1.63;;;;;;;9.28;66.04;99242.50;10414596;28;20007;-75
2024/04/16 17:39:58;;;;;;;2.55;1.40;;;;;;;9.00;65.68;99255.78;10428890;28;20405;-76
2024/04/16 17:45:00;;;;;;;2.57;1.20;;;;;;;9.39;65.26;99255.72;10410067;28;20019;-76
2024/04/16 17:50:02;;;;;;;2.13;1.25;;;;;;;9.28;67.30;99271.97;10428567;28;20241;-75
2024/04/16 17:55:04;;;;;;;2.60;1.00;;;;;;;8.81;68.01;99279.88;10426280;28;20026;-77
2024/04/16 18:00:06;;;;;;;;;;;;;;;8.04;70.69;99292.06;10436364;28;20031;-76
2024/04/16 18:05:11;;;;;;;;;;;;;;;8.00;71.27;99297.81;10424507;28;20373;-77
2024/04/16 18:10:13;;;;;;;1.40;0.90;;;;;;;8.12;73.93;99294.91;10431140;28;19930;-77
2024/04/16 18:15:15;;;;;;;2.25;1.52;;;;;;;7.88;75.85;99313.94;10406300;28;20361;-77
2024/04/16 18:20:17;;;;;;;1.27;1.17;;;;;;;8.10;76.07;99325.44;10436034;28;20015;-77
2024/04/16 18:25:18;;;;;;;2.35;1.33;;;;;;;7.95;79.11;99335.63;10430465;28;20022;-77
2024/04/16 18:30:20;;;;;;;1.92;1.70;;;;;;;7.52;82.46;99343.84;10412609;28;20483;-77
2024/04/16 18:35:22;;;;;;;2.90;2.13;;;;;;;7.89;80.50;99352.22;10430410;28;20132;-77
2024/04/16 18:40:24;;;;;;;1.88;1.73;;;;;;;8.12;79.71;99361.78;10439472;28;20022;-77
2024/04/16 18:45:26;;;;;;;2.08;1.88;;;;;;;8.06;80.06;99364.97;10439915;28;20920;-77
2024/04/16 18:50:28;;;;;;;2.53;1.83;;;;;;;8.24;80.59;99372.38;10423854;28;20004;-77
2024/04/16 18:55:30;;;;;;;3.28;2.15;;;;;;;8.13;82.04;99381.34;10430549;28;20299;-78
2024/04/16 19:00:32;;;;;;;2.80;2.47;;;;;;;8.22;81.67;99396.59;10430468;28;20015;-77
2024/04/16 19:05:34;;;;;;;4.25;2.42;;;;;;;8.27;81.42;99396.19;10423140;28;20016;-77
2024/04/16 19:10:36;;;;;;;4.53;2.50;;;;;;;8.25;81.30;99403.50;10429504;28;20018;-77
2024/04/16 19:15:38;;;;;;;4.75;2.97;;;;;;;8.26;80.85;99403.38;10432769;28;20027;-77
2024/04/16 19:20:40;;;;;;;2.35;2.15;;;;;;;8.05;80.79;99408.75;10437836;28;20007;-77
2024/04/16 19:25:42;;;;;;;3.47;3.17;;;;;;;8.16;81.19;99422.03;10434116;28;20007;-77
2024/04/16 19:30:44;;;;;;;3.63;2.85;;;;;;;8.21;80.63;99423.50;10431284;28;20022;-77
2024/04/16 19:35:45;;;;;;;3.50;3.20;;;;;;;7.79;82.80;99424.34;10429265;28;20443;-76
2024/04/16 19:40:47;;;;;;;6.63;3.13;;;;;;;7.88;82.04;99436.09;10430616;28;20286;-76
2024/04/16 19:45:49;;;;;;;3.65;3.28;;;;;;;7.63;83.20;99437.31;10422279;28;20011;-77
2024/04/16 19:50:51;;;;;;;4.97;3.17;;;;;;;7.50;84.16;99448.16;10430033;28;20022;-76
2024/04/16 19:55:59;;;;;;;3.92;3.38;;;;;;;7.47;84.79;99453.78;10428759;28;20023;-77
2024/04/16 20:01:05;;;;;;;5.00;3.60;;;;;;;7.57;85.46;99452.03;10430997;28;20016;-77
2024/04/16 20:06:10;;;;;;;5.45;3.65;;;;;;;7.66;85.53;99461.94;10420647;28;20031;-76
2024/04/16 20:11:12;;;;;;;3.80;3.15;;;;;;;7.68;85.39;99462.69;10418824;28;20022;-77
2024/04/16 20:16:14;;;;;;;;;;;;;;;7.69;85.55;99475.06;10423125;28;20015;-77
2024/04/16 20:21:17;;;;;;;5.68;3.53;;;;;;;7.72;85.46;99473.97;10424616;28;19931;-77
2024/04/16 20:26:18;;;;;;;4.53;4.10;;;;;;;7.76;85.16;99494.09;10411030;28;20452;-77
2024/04/16 20:31:20;;;;;;;4.70;3.77;;;;;;;7.62;84.86;99497.91;10417876;28;20026;-77
2024/04/16 20:36:22;;;;;;;6.68;4.22;;;;;;;7.38;85.63;99492.78;10419517;28;20809;-76
2024/04/16 20:41:24;;;;;;;4.88;4.40;;;;;;;6.97;88.49;99507.66;10413541;28;20528;-77
2024/04/16 20:46:26;;;;;;;5.00;4.35;;;;;;;7.11;87.30;99516.41;10402111;28;20015;-76
2024/04/16 20:51:28;;;;;;;5.97;5.40;;;;;;;7.02;86.97;99518.84;10421390;28;20018;-76
2024/04/16 20:56:32;;;;;;;6.93;5.30;;;;;;;6.90;87.10;99530.47;10418871;28;20230;-76
2024/04/16 21:01:34;;;;;;;8.13;5.80;;;;;;;6.85;87.08;99533.47;10427301;28;20011;-77
2024/04/16 21:06:35;;;;;;;9.07;5.97;;;;;;;6.71;87.53;99544.38;10421766;28;20043;-76
2024/04/16 21:11:37;;;;;;;7.63;6.15;;;;;;;6.58;87.56;99543.63;10399946;28;20019;-76
2024/04/16 21:16:39;;;;;;;11.65;6.10;;;;;;;6.58;87.44;99555.19;10404826;28;20008;-76
2024/04/16 21:21:41;;;;;;;11.82;6.80;;;;;;;6.56;87.72;99553.59;10412073;28;20031;-76
2024/04/16 21:26:44;;;;;;;10.93;6.70;;;;;;;6.47;87.82;99554.31;10398058;28;20027;-76
2024/04/16 21:31:46;;;;;;;10.68;6.25;;;;;;;6.35;88.77;99553.44;10426447;28;20372;-77
2024/04/16 21:36:48;;;;;;;9.57;6.28;;;;;;;6.56;87.53;99564.28;10423827;28;20406;-76
2024/04/16 21:41:50;;;;;;;10.03;7.13;;;;;;;6.47;87.29;99572.97;10413709;28;20012;-76
2024/04/16 21:46:52;;;;;;;13.15;6.68;;;;;;;6.67;87.05;99566.13;10424675;28;20269;-75
2024/04/16 21:51:54;;;;;;;13.02;7.10;;;;;;;6.61;87.33;99567.44;10399588;28;20015;-76
2024/04/16 21:56:55;;;;;;;11.80;6.70;;;;;;;6.72;86.27;99578.13;10426670;28;20011;-76
2024/04/16 22:01:57;;;;;;;10.57;7.07;;;;;;;6.64;85.77;99577.88;10429304;28;20019;-76
2024/04/16 22:06:59;;;;;;;14.05;6.13;;;;;;;6.57;85.51;99582.81;10417370;28;20012;-76
2024/04/16 22:12:01;;;;;;;11.38;6.55;;;;;;;6.60;85.42;99587.06;10403407;28;20100;-76
2024/04/16 22:17:03;;;;;;;14.98;6.70;;;;;;;6.56;85.64;99591.81;10401911;28;20011;-76
2024/04/16 22:22:05;;;;;;;13.80;6.30;;;;;;;6.56;86.26;99599.81;10423314;28;20016;-76
2024/04/16 22:27:07;;;;;;;14.10;5.60;;;;;;;6.61;85.97;99604.81;10427757;28;20038;-76
2024/04/16 22:32:09;;;;;;;11.57;5.97;;;;;;;6.73;85.15;99606.50;10433735;28;20047;-76
2024/04/16 22:37:10;;;;;;;12.00;5.50;;;;;;;6.76;84.65;99616.94;10407650;28;20432;-76
2024/04/16 22:42:12;;;;;;;11.50;4.97;;;;;;;6.67;84.97;99614.16;10411616;28;20007;-76
2024/04/16 22:47:14;;;;;;;15.43;5.18;;;;;;;6.89;84.27;99624.06;10409135;28;20397;-76
2024/04/16 22:52:16;;;;;;;13.03;4.67;;;;;;;6.87;83.87;99628.63;10424919;28;20026;-76
2024/04/16 22:57:18;;;;;;;9.18;4.47;;;;;;;6.90;83.82;99628.41;10419728;28;20276;-76
2024/04/16 23:02:19;;;;;;;10.95;4.40;;;;;;;6.71;84.58;99629.78;10414853;28;20019;-76
2024/04/16 23:07:21;;;;;;;14.65;4.25;;;;;;;6.58;86.11;99632.56;10416662;28;20360;-76
2024/04/16 23:12:23;;;;;;;13.55;3.92;;;;;;;6.49;85.47;99627.91;10417256;28;20397;-76
2024/04/16 23:17:25;;;;;;;10.17;2.57;;;;;;;6.52;84.65;99629.50;10416142;28;20023;-76
2024/04/16 23:22:27;;;;;;;17.13;4.13;;;;;;;6.59;83.34;99628.09;10422000;28;20293;-76
2024/04/16 23:27:28;;;;;;;11.32;3.25;;;;;;;6.32;83.92;99629.19;10415171;28;20021;-76
2024/04/16 23:32:30;;;;;;;11.47;3.60;;;;;;;6.34;83.59;99642.44;10420035;28;20377;-76
2024/04/16 23:37:32;;;;;;;14.07;3.30;;;;;;;6.18;83.62;99645.41;10416222;28;20014;-76
2024/04/16 23:42:34;;;;;;;14.10;5.10;;;;;;;6.06;84.59;99651.63;10419689;28;20027;-76
2024/04/16 23:47:36;;;;;;;9.40;2.27;;;;;;;5.99;84.90;99648.56;10419132;28;20066;-76